地図

経路データ

SID SEASON NUMBER BASIN SUBBASIN NAME ISO_TIME NATURE LAT LON WMO_WIND WMO_PRES WMO_AGENCY TRACK_TYPE DIST2LAND LANDFALL IFLAG USA_AGENCY USA_ATCF_ID USA_LAT USA_LON USA_RECORD USA_STATUS USA_WIND USA_PRES USA_SSHS USA_R34_NE USA_R34_SE USA_R34_SW USA_R34_NW USA_R50_NE USA_R50_SE USA_R50_SW USA_R50_NW USA_R64_NE USA_R64_SE USA_R64_SW USA_R64_NW USA_POCI USA_ROCI USA_RMW USA_EYE TOKYO_LAT TOKYO_LON TOKYO_GRADE TOKYO_WIND TOKYO_PRES TOKYO_R50_DIR TOKYO_R50_LONG TOKYO_R50_SHORT TOKYO_R30_DIR TOKYO_R30_LONG TOKYO_R30_SHORT TOKYO_LAND CMA_LAT CMA_LON CMA_CAT CMA_WIND CMA_PRES HKO_LAT HKO_LON HKO_CAT HKO_WIND HKO_PRES NEWDELHI_LAT NEWDELHI_LON NEWDELHI_GRADE NEWDELHI_WIND NEWDELHI_PRES NEWDELHI_CI NEWDELHI_DP NEWDELHI_POCI REUNION_LAT REUNION_LON REUNION_TYPE REUNION_WIND REUNION_PRES REUNION_TNUM REUNION_CI REUNION_RMW REUNION_R34_NE REUNION_R34_SE REUNION_R34_SW REUNION_R34_NW REUNION_R50_NE REUNION_R50_SE REUNION_R50_SW REUNION_R50_NW REUNION_R64_NE REUNION_R64_SE REUNION_R64_SW REUNION_R64_NW BOM_LAT BOM_LON BOM_TYPE BOM_WIND BOM_PRES BOM_TNUM BOM_CI BOM_RMW BOM_R34_NE BOM_R34_SE BOM_R34_SW BOM_R34_NW BOM_R50_NE BOM_R50_SE BOM_R50_SW BOM_R50_NW BOM_R64_NE BOM_R64_SE BOM_R64_SW BOM_R64_NW BOM_ROCI BOM_POCI BOM_EYE BOM_POS_METHOD BOM_PRES_METHOD NADI_LAT NADI_LON NADI_CAT NADI_WIND NADI_PRES WELLINGTON_LAT WELLINGTON_LON WELLINGTON_WIND WELLINGTON_PRES DS824_LAT DS824_LON DS824_STAGE DS824_WIND DS824_PRES TD9636_LAT TD9636_LON TD9636_STAGE TD9636_WIND TD9636_PRES TD9635_LAT TD9635_LON TD9635_WIND TD9635_PRES TD9635_ROCI NEUMANN_LAT NEUMANN_LON NEUMANN_CLASS NEUMANN_WIND NEUMANN_PRES MLC_LAT MLC_LON MLC_CLASS MLC_WIND MLC_PRES USA_GUST BOM_GUST BOM_GUST_PER REUNION_GUST REUNION_GUST_PER USA_SEAHGT USA_SEARAD_NE USA_SEARAD_SE USA_SEARAD_SW USA_SEARAD_NW STORM_SPEED STORM_DIR
1858091S12408 1858 6 SI MM NOT_NAMED 1858-03-31 18:00:00 NR -12.3000 47.6000 main 132 132 __________O___ -1 -12.3000 47.6000 7 10 260
1858091S12408 1858 6 SI MM NOT_NAMED 1858-03-31 21:00:00 NR -12.3866 47.0971 main 166 166 __________P___ -1 -12.3866 47.0971 7 10 260
1858091S12408 1858 6 SI MM NOT_NAMED 1858-04-01 00:00:00 NR -12.4782 46.5952 main 194 194 __________P___ -1 -12.4782 46.5952 7 10 259
1858091S12408 1858 6 SI MM NOT_NAMED 1858-04-01 03:00:00 NR -12.5807 46.0957 main 230 230 __________P___ -1 -12.5807 46.0957 7 10 257
1858091S12408 1858 6 SI MM NOT_NAMED 1858-04-01 06:00:00 NR -12.7000 45.6000 main 273 273 __________O___ -1 -12.7000 45.6000 7 10 255
1858091S12408 1858 6 SI MM NOT_NAMED 1858-04-01 09:00:00 NR -12.8410 45.1096 main 319 316 __________P___ -1 -12.8410 45.1096 7 10 252
1858091S12408 1858 6 SI MM NOT_NAMED 1858-04-01 12:00:00 NR -13.0047 44.6273 main 340 328 __________P___ -1 -13.0047 44.6273 7 10 249
1858091S12408 1858 6 SI MM NOT_NAMED 1858-04-01 15:00:00 NR -13.1911 44.1564 main 328 322 __________P___ -1 -13.1911 44.1564 7 10 246
1858091S12408 1858 6 SI MM NOT_NAMED 1858-04-01 18:00:00 NR -13.4000 43.7000 main 327 288 __________O___ -1 -13.4000 43.7000 7 10 244
1858091S12408 1858 6 SI MM NOT_NAMED 1858-04-01 21:00:00 NR -13.6242 43.2484 main 277 225 __________P___ -1 -13.6242 43.2484 7 10 241
1858091S12408 1858 6 SI MM NOT_NAMED 1858-04-02 00:00:00 NR -13.8698 42.8124 main 225 178 __________P___ -1 -13.8698 42.8124 7 10 239
1858091S12408 1858 6 SI MM NOT_NAMED 1858-04-02 03:00:00 NR -14.1305 42.3952 main 178 129 __________P___ -1 -14.1305 42.3952 7 10 236
1858091S12408 1858 6 SI MM NOT_NAMED 1858-04-02 06:00:00 NR -14.4000 42.0000 main 129 86 __________O___ -1 -14.4000 42.0000 7 9 236
1858091S12408 1858 6 SI MM NOT_NAMED 1858-04-02 09:00:00 NR -14.6433 41.6078 main 86 53 __________P___ -1 -14.6433 41.6078 7 9 236
1858091S12408 1858 6 SI MM NOT_NAMED 1858-04-02 12:00:00 NR -14.8974 41.2395 main 44 15 __________P___ -1 -14.8974 41.2395 7 9 232
1858091S12408 1858 6 SI MM NOT_NAMED 1858-04-02 15:00:00 NR -15.1778 40.9015 main 24 0 __________P___ -1 -15.1778 40.9015 7 9 226
1858091S12408 1858 6 SI MM NOT_NAMED 1858-04-02 18:00:00 NR -15.5000 40.6000 main 10 0 __________O___ -1 -15.5000 40.6000 7 9 218
1858091S12408 1858 6 SI MM NOT_NAMED 1858-04-02 21:00:00 NR -15.8747 40.3383 main 10 10 __________P___ -1 -15.8747 40.3383 7 9 211
1858091S12408 1858 6 SI MM NOT_NAMED 1858-04-03 00:00:00 NR -16.2926 40.1083 main 15 15 __________P___ -1 -16.2926 40.1083 7 10 206
1858091S12408 1858 6 SI MM NOT_NAMED 1858-04-03 03:00:00 NR -16.7392 39.8992 main 24 24 __________P___ -1 -16.7392 39.8992 7 10 203
1858091S12408 1858 6 SI MM NOT_NAMED 1858-04-03 06:00:00 NR -17.2000 39.7000 main 61 __________O___ -1 -17.2000 39.7000 7 10 203

IBTrACS Databaseについて

本データベースは、米国NOAAが公開する1842年以降の世界の熱帯低気圧のベストトラックデータアーカイブInternational Best Track Archive for Climate Stewardship (IBTrACS)を、ウェブで閲覧しやすい形式に変換したものです。

最終更新日:2021-10-27